createdAt,value
2022-12-18T00:01:06.994Z,102747.94
2022-12-18T00:03:34.676Z,102756.66
2022-12-18T00:06:01.916Z,102752.09
2022-12-18T00:08:29.584Z,102755.69
2022-12-18T00:10:59.845Z,102752.09
2022-12-18T00:13:28.222Z,102750.56
2022-12-18T00:15:56.718Z,102749.59
2022-12-18T00:18:23.613Z,102751.38
2022-12-18T00:20:50.505Z,102756.03
2022-12-18T00:23:17.333Z,102759.22
2022-12-18T00:25:44.400Z,102763.34
2022-12-18T00:28:11.125Z,102767.69
2022-12-18T00:30:37.973Z,102772.41
2022-12-18T00:33:05.016Z,102767.69
2022-12-18T00:35:32.917Z,102767.69
2022-12-18T00:37:59.756Z,102766.25
2022-12-18T00:40:26.562Z,102754.94
2022-12-18T00:42:59.186Z,102757.56
2022-12-18T00:45:31.403Z,102761.47
2022-12-18T00:47:58.216Z,102767.91
2022-12-18T00:50:25.902Z,102766.50
2022-12-18T00:52:52.699Z,102775.09
2022-12-18T00:55:19.993Z,102783.50
2022-12-18T00:57:46.761Z,102779.50
2022-12-18T01:00:15.103Z,102781.00
2022-12-18T01:02:42.383Z,102784.97
2022-12-18T01:05:10.204Z,102784.72
2022-12-18T01:07:36.964Z,102791.50
2022-12-18T01:10:04.537Z,102793.88
2022-12-18T01:12:31.327Z,102800.34
2022-12-18T01:14:58.142Z,102807.59
2022-12-18T01:17:25.247Z,102807.59
2022-12-18T01:19:52.035Z,102807.47
2022-12-18T01:22:18.892Z,102796.88
2022-12-18T01:24:45.848Z,102799.38
2022-12-18T01:27:12.711Z,102798.31
2022-12-18T01:29:39.473Z,102804.38
2022-12-18T01:32:06.339Z,102804.91
2022-12-18T01:34:33.178Z,102802.28
2022-12-18T01:37:00.050Z,102800.22
2022-12-18T01:39:26.957Z,102798.78
2022-12-18T01:42:02.835Z,102792.88
2022-12-18T01:44:48.154Z,102794.25
2022-12-18T01:47:21.577Z,102802.00
2022-12-18T01:49:48.566Z,102799.88
2022-12-18T01:52:15.782Z,102804.09
2022-12-18T01:54:42.628Z,102796.34
2022-12-18T01:57:09.541Z,102793.84
2022-12-18T01:59:36.607Z,102785.84
2022-12-18T02:02:03.795Z,102789.50
2022-12-18T02:04:30.958Z,102794.16
2022-12-18T02:07:00.468Z,102792.00
2022-12-18T02:09:33.066Z,102788.78
2022-12-18T02:12:00.183Z,102780.91
2022-12-18T02:14:30.121Z,102789.59
2022-12-18T02:17:02.939Z,102790.56
2022-12-18T02:19:48.330Z,102786.94
2022-12-18T02:22:26.155Z,102784.44
2022-12-18T02:25:02.163Z,102790.75
2022-12-18T02:27:31.504Z,102802.91
2022-12-18T02:30:00.489Z,102797.06
2022-12-18T02:32:29.667Z,102802.31
2022-12-18T02:34:57.305Z,102808.91
2022-12-18T02:37:24.795Z,102814.75
2022-12-18T02:39:52.424Z,102815.75
2022-12-18T02:42:19.950Z,102816.16
2022-12-18T02:44:48.668Z,102819.03
2022-12-18T02:47:17.231Z,102813.34
2022-12-18T02:49:53.093Z,102817.13
2022-12-18T02:52:35.059Z,102824.69
2022-12-18T02:55:07.780Z,102833.69
2022-12-18T02:57:37.100Z,102829.31
2022-12-18T03:00:07.282Z,102830.50
2022-12-18T03:02:49.384Z,102831.88
2022-12-18T03:05:29.072Z,102836.97
2022-12-18T03:08:02.119Z,102836.59
2022-12-18T03:10:31.814Z,102848.75
2022-12-18T03:13:07.370Z,102844.34
2022-12-18T03:15:40.684Z,102835.19
2022-12-18T03:18:10.076Z,102840.88
2022-12-18T03:20:37.974Z,102837.94
2022-12-18T03:23:12.253Z,102838.03
2022-12-18T03:25:41.364Z,102828.16
2022-12-18T03:28:11.334Z,102830.31
2022-12-18T03:30:39.877Z,102826.16
2022-12-18T03:33:09.562Z,102834.38
2022-12-18T03:35:38.861Z,102838.28
2022-12-18T03:38:05.777Z,102834.25
2022-12-18T03:40:54.637Z,102835.56
2022-12-18T03:43:28.001Z,102832.94
2022-12-18T03:45:58.028Z,102831.97
2022-12-18T03:48:30.450Z,102830.91
2022-12-18T03:50:58.327Z,102832.69
2022-12-18T03:53:25.167Z,102840.78
2022-12-18T03:55:52.786Z,102847.00
2022-12-18T03:58:22.252Z,102851.50
2022-12-18T04:00:51.344Z,102848.66
2022-12-18T04:03:22.669Z,102859.38
2022-12-18T04:05:55.428Z,102856.75
2022-12-18T04:08:22.766Z,102854.84
2022-12-18T04:10:49.530Z,102858.31
2022-12-18T04:13:23.381Z,102859.38
2022-12-18T04:15:50.208Z,102867.59
2022-12-18T04:18:17.169Z,102858.91
2022-12-18T04:20:43.933Z,102857.94
2022-12-18T04:23:10.817Z,102859.03
2022-12-18T04:25:37.664Z,102850.09
2022-12-18T04:28:04.528Z,102842.94
2022-12-18T04:30:31.455Z,102838.78
2022-12-18T04:32:58.261Z,102846.41
2022-12-18T04:35:25.077Z,102844.13
2022-12-18T04:37:51.852Z,102848.63
2022-12-18T04:40:18.699Z,102845.31
2022-12-18T04:42:45.525Z,102844.84
2022-12-18T04:45:12.425Z,102843.91
2022-12-18T04:47:39.190Z,102843.50
2022-12-18T04:50:06.277Z,102843.28
2022-12-18T04:52:33.580Z,102849.38
2022-12-18T04:55:00.411Z,102852.69
2022-12-18T04:57:27.553Z,102856.47
2022-12-18T04:59:54.318Z,102863.38
2022-12-18T05:02:21.337Z,102860.06
2022-12-18T05:04:48.458Z,102854.47
2022-12-18T05:07:15.532Z,102852.47
2022-12-18T05:09:42.298Z,102851.25
2022-12-18T05:12:09.393Z,102845.19
2022-12-18T05:14:36.138Z,102845.81
2022-12-18T05:17:03.608Z,102860.69
2022-12-18T05:19:30.501Z,102863.91
2022-12-18T05:21:58.449Z,102856.16
2022-12-18T05:24:25.301Z,102847.34
2022-12-18T05:26:52.144Z,102844.34
2022-12-18T05:29:18.983Z,102854.94
2022-12-18T05:31:45.799Z,102865.78
2022-12-18T05:34:12.953Z,102871.97
2022-12-18T05:36:39.874Z,102882.91
2022-12-18T05:39:07.205Z,102887.56
2022-12-18T05:41:34.071Z,102886.94
2022-12-18T05:44:01.424Z,102894.06
2022-12-18T05:46:28.337Z,102891.56
2022-12-18T05:48:55.318Z,102894.72
2022-12-18T05:51:23.393Z,102896.34
2022-12-18T05:53:50.343Z,102898.47
2022-12-18T05:56:19.223Z,102903.09
2022-12-18T05:58:46.198Z,102895.00
2022-12-18T06:01:14.744Z,102903.56
2022-12-18T06:03:42.286Z,102892.25
2022-12-18T06:06:23.637Z,102893.78
2022-12-18T06:08:51.160Z,102905.69
2022-12-18T06:11:19.597Z,102908.66
2022-12-18T06:13:47.374Z,102901.38
2022-12-18T06:16:14.275Z,102904.59
2022-12-18T06:18:41.132Z,102899.59
2022-12-18T06:21:08.045Z,102894.72
2022-12-18T06:23:34.920Z,102895.09
2022-12-18T06:26:09.162Z,102890.56
2022-12-18T06:28:36.071Z,102901.13
2022-12-18T06:31:04.227Z,102891.47
2022-12-18T06:33:31.630Z,102908.00
2022-12-18T06:36:09.178Z,102901.13
2022-12-18T06:38:37.916Z,102896.59
2022-12-18T06:41:08.890Z,102898.00
2022-12-18T06:43:35.718Z,102908.97
2022-12-18T06:46:03.417Z,102910.22
2022-12-18T06:48:30.263Z,102915.34
2022-12-18T06:50:57.481Z,102925.50
2022-12-18T06:53:24.271Z,102929.16
2022-12-18T06:55:51.380Z,102940.41
2022-12-18T06:58:18.266Z,102937.69
2022-12-18T07:00:45.492Z,102945.44
2022-12-18T07:03:12.720Z,102945.84
2022-12-18T07:05:42.334Z,102955.47
2022-12-18T07:08:09.104Z,102952.44
2022-12-18T07:10:47.411Z,102957.16
2022-12-18T07:13:16.882Z,102956.72
2022-12-18T07:15:44.649Z,102947.69
2022-12-18T07:18:12.117Z,102958.41
2022-12-18T07:20:40.222Z,102955.41
2022-12-18T07:23:07.013Z,102945.06
2022-12-18T07:25:37.391Z,102945.19
2022-12-18T07:28:04.649Z,102955.25
2022-12-18T07:30:31.546Z,102950.97
2022-12-18T07:32:58.643Z,102950.66
2022-12-18T07:35:25.839Z,102956.72
2022-12-18T07:37:52.686Z,102952.19
2022-12-18T07:40:19.502Z,102960.66
2022-12-18T07:42:46.386Z,102976.56
2022-12-18T07:45:13.214Z,102976.56
2022-12-18T07:47:42.458Z,102987.81
2022-12-18T07:50:09.501Z,102997.03
2022-12-18T07:52:36.318Z,102984.78
2022-12-18T07:55:03.553Z,102990.78
2022-12-18T08:00:17.425Z,102994.97
2022-12-18T08:02:44.304Z,102992.97
2022-12-18T08:05:11.281Z,102986.34
2022-12-18T08:07:38.137Z,102986.13
2022-12-18T08:10:05.153Z,102980.44
2022-12-18T08:12:33.255Z,102984.25
2022-12-18T08:15:00.094Z,102979.53
2022-12-18T08:17:26.866Z,102979.75
2022-12-18T08:19:53.737Z,102984.34
2022-12-18T08:22:20.644Z,102986.47
2022-12-18T08:24:47.812Z,102979.94
2022-12-18T08:27:29.419Z,102978.41
2022-12-18T08:29:57.593Z,102981.50
2022-12-18T08:32:25.218Z,102973.69
2022-12-18T08:34:52.106Z,102967.75
2022-12-18T08:37:18.988Z,102970.84
2022-12-18T08:39:46.241Z,102965.13
2022-12-18T08:42:31.721Z,102958.81
2022-12-18T08:44:58.504Z,102950.38
2022-12-18T08:47:26.911Z,102948.84
2022-12-18T08:49:53.778Z,102958.50
2022-12-18T08:52:20.528Z,102959.09
2022-12-18T08:54:47.328Z,102951.78
2022-12-18T08:57:14.136Z,102956.56
2022-12-18T08:59:41.054Z,102962.28
2022-12-18T09:02:12.973Z,102950.81
2022-12-18T09:04:40.987Z,102963.09
2022-12-18T09:07:07.862Z,102967.38
2022-12-18T09:09:34.648Z,102962.84
2022-12-18T09:12:01.394Z,102964.00
2022-12-18T09:14:28.201Z,102969.09
2022-12-18T09:16:55.310Z,102974.34
2022-12-18T09:19:22.202Z,102969.75
2022-12-18T09:21:49.169Z,102973.81
2022-12-18T09:24:16.241Z,102967.84
2022-12-18T09:26:46.839Z,102963.13
2022-12-18T09:29:15.625Z,102959.13
2022-12-18T09:31:43.940Z,102958.03
2022-12-18T09:34:10.730Z,102959.25
2022-12-18T09:36:37.555Z,102952.38
2022-12-18T09:39:08.093Z,102958.75
2022-12-18T09:41:51.840Z,102962.44
2022-12-18T09:44:22.079Z,102960.53
2022-12-18T09:46:56.163Z,102969.19
2022-12-18T09:49:24.696Z,102967.97
2022-12-18T09:51:53.561Z,102971.16
2022-12-18T09:54:26.779Z,102967.03
2022-12-18T09:56:54.724Z,102972.91
2022-12-18T09:59:26.747Z,102977.06
2022-12-18T10:01:54.533Z,102977.34
2022-12-18T10:04:21.868Z,102979.06
2022-12-18T10:07:24.068Z,102983.81
2022-12-18T10:09:59.287Z,102981.78
2022-12-18T10:12:26.034Z,102974.97
2022-12-18T10:15:01.734Z,102980.22
2022-12-18T10:17:34.332Z,102977.63
2022-12-18T10:20:14.428Z,102978.63
2022-12-18T10:22:56.310Z,102987.72
2022-12-18T10:25:29.829Z,102994.56
2022-12-18T10:27:58.778Z,102983.31
2022-12-18T10:30:26.891Z,102990.25
2022-12-18T10:32:53.789Z,102991.94
2022-12-18T10:35:24.971Z,102998.41
2022-12-18T10:38:03.761Z,102997.59
2022-12-18T10:40:31.046Z,103004.66
2022-12-18T10:43:04.298Z,102995.22
2022-12-18T10:45:31.095Z,103000.47
2022-12-18T10:47:59.104Z,102997.41
2022-12-18T10:50:31.856Z,102993.84
2022-12-18T10:53:16.012Z,102997.03
2022-12-18T10:55:46.568Z,103002.19
2022-12-18T10:58:26.898Z,102993.53
2022-12-18T11:01:14.103Z,102996.44
2022-12-18T11:03:41.411Z,102993.63
2022-12-18T11:06:10.467Z,102992.16
2022-12-18T11:08:38.329Z,102989.56
2022-12-18T11:11:07.929Z,102985.94
2022-12-18T11:13:34.887Z,102981.88
2022-12-18T11:16:02.069Z,102973.94
2022-12-18T11:18:33.561Z,102976.53
2022-12-18T11:21:00.594Z,102985.91
2022-12-18T11:23:28.025Z,102996.88
2022-12-18T11:25:56.667Z,102992.97
2022-12-18T11:28:37.979Z,102992.81
2022-12-18T11:31:19.256Z,102986.19
2022-12-18T11:34:27.545Z,102991.59
2022-12-18T11:36:47.333Z,102979.66
2022-12-18T11:39:20.150Z,102980.06
2022-12-18T11:42:11.787Z,102988.53
2022-12-18T11:44:51.167Z,102986.69
2022-12-18T11:47:36.664Z,102986.09
2022-12-18T11:50:11.668Z,102990.16
2022-12-18T11:52:39.716Z,102964.69
2022-12-18T11:55:12.557Z,102947.19
2022-12-18T11:57:43.541Z,102963.63
2022-12-18T12:00:16.102Z,102965.25
2022-12-18T12:03:05.681Z,102956.44
2022-12-18T12:05:51.241Z,102985.38
2022-12-18T12:08:27.219Z,102979.44
2022-12-18T12:10:59.482Z,102976.63
2022-12-18T12:13:26.271Z,102972.38
2022-12-18T12:16:32.019Z,102957.09
2022-12-18T12:19:01.748Z,102945.03
2022-12-18T12:21:40.200Z,102924.34
2022-12-18T12:24:09.744Z,102918.22
2022-12-18T12:26:46.632Z,102908.78
2022-12-18T12:29:23.088Z,102897.34
2022-12-18T12:31:56.084Z,102892.06
2022-12-18T12:34:27.607Z,102885.38
2022-12-18T12:37:26.990Z,102893.59
2022-12-18T12:39:54.734Z,102892.94
2022-12-18T12:42:43.273Z,102894.22
2022-12-18T12:45:14.914Z,102897.28
2022-12-18T12:47:43.126Z,102896.50
2022-12-18T12:50:18.797Z,102891.78
2022-12-18T12:52:50.233Z,102899.56
2022-12-18T12:55:19.769Z,102897.84
2022-12-18T12:57:56.109Z,102906.44
2022-12-18T13:00:25.154Z,102908.31
2022-12-18T13:03:07.472Z,102901.53
2022-12-18T13:05:53.104Z,102898.81
2022-12-18T13:08:27.366Z,102887.84
2022-12-18T13:11:36.799Z,102871.63
2022-12-18T13:14:03.588Z,102862.63
2022-12-18T13:16:30.437Z,102860.75
2022-12-18T13:18:59.686Z,102850.84
2022-12-18T13:21:34.192Z,102831.97
2022-12-18T13:24:21.528Z,102832.28
2022-12-18T13:26:49.492Z,102841.41
2022-12-18T13:29:36.224Z,102847.44
2022-12-18T13:32:03.557Z,102841.06
2022-12-18T13:34:32.218Z,102848.25
2022-12-18T13:37:19.700Z,102850.91
2022-12-18T13:39:47.031Z,102857.03
2022-12-18T13:42:34.254Z,102864.28
2022-12-18T13:45:01.333Z,102856.53
2022-12-18T13:47:38.999Z,102854.31
2022-12-18T13:50:22.107Z,102853.44
2022-12-18T13:52:49.500Z,102866.59
2022-12-18T13:55:18.869Z,102865.53
2022-12-18T13:57:45.728Z,102864.00
2022-12-18T14:00:20.146Z,102855.66
2022-12-18T14:02:47.383Z,102847.25
2022-12-18T14:05:27.358Z,102843.31
2022-12-18T14:07:54.990Z,102839.84
2022-12-18T14:13:10.441Z,102848.03
2022-12-18T14:15:41.208Z,102868.19
2022-12-18T14:18:30.534Z,102865.56
2022-12-18T14:21:01.114Z,102853.56
2022-12-18T14:23:32.458Z,102840.59
2022-12-18T14:26:03.785Z,102844.06
2022-12-18T14:28:32.929Z,102848.13
2022-12-18T14:30:59.915Z,102851.47
2022-12-18T14:33:28.186Z,102846.88
2022-12-18T14:35:59.824Z,102840.38
2022-12-18T14:38:32.498Z,102831.00
2022-12-18T14:41:04.468Z,102824.06
2022-12-18T14:43:35.624Z,102820.34
2022-12-18T14:46:03.780Z,102814.13
2022-12-18T14:48:33.679Z,102805.78
2022-12-18T14:51:00.617Z,102808.56
2022-12-18T14:53:33.420Z,102814.25
2022-12-18T14:56:00.966Z,102817.25
2022-12-18T14:58:28.479Z,102815.31
2022-12-18T15:00:55.940Z,102810.47
2022-12-18T15:03:23.775Z,102796.91
2022-12-18T15:05:51.938Z,102792.06
2022-12-18T15:08:30.218Z,102795.66
2022-12-18T15:10:58.101Z,102785.25
2022-12-18T15:13:25.802Z,102800.69
2022-12-18T15:15:54.252Z,102785.25
2022-12-18T15:18:23.952Z,102781.94
2022-12-18T15:20:50.828Z,102782.25
2022-12-18T15:23:22.716Z,102781.81
2022-12-18T15:26:03.355Z,102778.34
2022-12-18T15:28:33.354Z,102761.03
2022-12-18T15:31:13.513Z,102769.34
2022-12-18T15:33:43.005Z,102757.28
2022-12-18T15:36:11.533Z,102760.06
2022-12-18T15:38:38.385Z,102747.19
2022-12-18T15:41:17.847Z,102740.94
2022-12-18T15:43:51.994Z,102731.09
2022-12-18T15:46:23.262Z,102722.28
2022-12-18T15:48:51.198Z,102711.69
2022-12-18T15:51:18.325Z,102715.97
2022-12-18T15:53:45.803Z,102723.31
2022-12-18T15:56:31.664Z,102707.22
2022-12-18T15:58:58.903Z,102709.28
2022-12-18T16:01:27.241Z,102705.13
2022-12-18T16:03:55.009Z,102696.69
2022-12-18T16:06:22.662Z,102697.22
2022-12-18T16:08:49.561Z,102691.34
2022-12-18T16:11:38.738Z,102688.56
2022-12-18T16:14:06.777Z,102674.84
2022-12-18T16:16:34.305Z,102664.69
2022-12-18T16:19:01.430Z,102661.25
2022-12-18T16:21:33.917Z,102651.59
2022-12-18T16:24:01.151Z,102647.69
2022-12-18T16:26:28.350Z,102648.75
2022-12-18T16:28:56.334Z,102654.22
2022-12-18T16:31:23.563Z,102661.78
2022-12-18T16:33:53.322Z,102660.34
2022-12-18T16:36:20.570Z,102655.06
2022-12-18T16:38:47.432Z,102654.09
2022-12-18T16:41:32.311Z,102648.38
2022-12-18T16:44:04.658Z,102652.41
2022-12-18T16:46:32.249Z,102648.09
2022-12-18T16:48:59.950Z,102647.63
2022-12-18T16:51:27.725Z,102645.06
2022-12-18T16:53:55.562Z,102646.88
2022-12-18T16:56:23.342Z,102633.53
2022-12-18T16:58:55.297Z,102640.69
2022-12-18T17:01:23.247Z,102643.75
2022-12-18T17:03:57.600Z,102642.28
2022-12-18T17:06:25.934Z,102653.16
2022-12-18T17:08:57.583Z,102645.66
2022-12-18T17:11:25.794Z,102645.81
2022-12-18T17:13:54.103Z,102643.72
2022-12-18T17:16:21.428Z,102630.97
2022-12-18T17:18:48.973Z,102638.75
2022-12-18T17:21:16.457Z,102622.34
2022-12-18T17:23:44.221Z,102617.66
2022-12-18T17:26:11.863Z,102615.44
2022-12-18T17:28:39.860Z,102615.09
2022-12-18T17:31:20.962Z,102609.97
2022-12-18T17:33:48.330Z,102629.94
2022-12-18T17:36:15.842Z,102619.03
2022-12-18T17:38:44.235Z,102622.34
2022-12-18T17:41:12.120Z,102621.34
2022-12-18T17:43:46.438Z,102621.69
2022-12-18T17:46:14.488Z,102621.34
2022-12-18T17:48:42.081Z,102618.78
2022-12-18T17:51:09.795Z,102630.00
2022-12-18T17:53:39.570Z,102621.88
2022-12-18T17:56:08.493Z,102613.78
2022-12-18T17:58:38.716Z,102603.63
2022-12-18T18:01:06.644Z,102601.66
2022-12-18T18:03:34.180Z,102590.16
2022-12-18T18:06:02.347Z,102590.16
2022-12-18T18:08:29.519Z,102596.75
2022-12-18T18:11:16.355Z,102599.22
2022-12-18T18:14:01.681Z,102598.25
2022-12-18T18:16:30.075Z,102591.81
2022-12-18T18:19:00.929Z,102575.97
2022-12-18T18:21:28.360Z,102576.13
2022-12-18T18:23:55.594Z,102576.28
2022-12-18T18:26:22.590Z,102570.88
2022-12-18T18:28:54.138Z,102567.41
2022-12-18T18:31:21.687Z,102562.78
2022-12-18T18:33:48.600Z,102562.00
2022-12-18T18:36:15.609Z,102557.38
2022-12-18T18:38:48.009Z,102567.56
2022-12-18T18:41:15.996Z,102562.47
2022-12-18T18:43:43.470Z,102555.06
2022-12-18T18:46:12.344Z,102542.88
2022-12-18T18:48:42.378Z,102545.84
2022-12-18T18:51:12.255Z,102547.00
2022-12-18T18:53:43.203Z,102551.97
2022-12-18T18:56:45.446Z,102555.59
2022-12-18T18:58:59.715Z,102542.03
2022-12-18T19:01:26.691Z,102541.06
2022-12-18T19:03:53.748Z,102543.84
2022-12-18T19:06:23.442Z,102544.00
2022-12-18T19:08:50.879Z,102537.41
2022-12-18T19:11:36.731Z,102545.16
2022-12-18T19:14:05.107Z,102540.38
2022-12-18T19:16:32.495Z,102528.84
2022-12-18T19:19:02.300Z,102524.06
2022-12-18T19:21:31.354Z,102517.13
2022-12-18T19:24:01.311Z,102518.47
2022-12-18T19:26:28.941Z,102524.06
2022-12-18T19:29:03.586Z,102518.66
2022-12-18T19:31:35.702Z,102511.56
2022-12-18T19:34:03.921Z,102503.47
2022-12-18T19:36:31.202Z,102506.78
2022-12-18T19:38:59.428Z,102502.63
2022-12-18T19:41:27.571Z,102490.47
2022-12-18T19:43:57.551Z,102494.25
2022-12-18T19:46:24.704Z,102492.28
2022-12-18T19:48:52.212Z,102485.50
2022-12-18T19:51:21.100Z,102484.84
2022-12-18T19:53:49.843Z,102484.38
2022-12-18T19:56:20.402Z,102468.53
2022-12-18T19:58:47.204Z,102472.16
2022-12-18T20:01:16.753Z,102474.66
2022-12-18T20:03:46.627Z,102471.81
2022-12-18T20:06:25.187Z,102466.88
2022-12-18T20:08:52.546Z,102469.03
2022-12-18T20:11:21.716Z,102477.44
2022-12-18T20:13:48.501Z,102465.09
2022-12-18T20:16:15.699Z,102470.22
2022-12-18T20:18:42.621Z,102470.06
2022-12-18T20:21:13.833Z,102460.66
2022-12-18T20:23:41.639Z,102457.69
2022-12-18T20:26:08.976Z,102447.16
2022-12-18T20:28:35.962Z,102431.38
2022-12-18T20:31:06.506Z,102427.06
2022-12-18T20:33:33.893Z,102425.78
2022-12-18T20:36:02.449Z,102424.78
2022-12-18T20:38:30.335Z,102414.56
2022-12-18T20:40:59.389Z,102409.72
2022-12-18T20:43:26.314Z,102411.28
2022-12-18T20:45:59.996Z,102412.91
2022-12-18T20:48:27.595Z,102402.69
2022-12-18T20:50:59.054Z,102397.28
2022-12-18T20:53:28.965Z,102410.25
2022-12-18T20:55:55.799Z,102414.41
2022-12-18T20:58:22.745Z,102409.63
2022-12-18T21:00:50.179Z,102402.69
2022-12-18T21:03:17.901Z,102402.84
2022-12-18T21:05:45.031Z,102407.97
2022-12-18T21:08:12.879Z,102391.66
2022-12-18T21:10:42.500Z,102385.88
2022-12-18T21:13:10.187Z,102379.97
2022-12-18T21:15:38.188Z,102370.06
2022-12-18T21:18:05.008Z,102368.91
2022-12-18T21:20:31.851Z,102370.72
2022-12-18T21:23:03.976Z,102372.38
2022-12-18T21:25:44.214Z,102355.56
2022-12-18T21:28:12.731Z,102345.50
2022-12-18T21:30:39.934Z,102337.91
2022-12-18T21:33:06.743Z,102338.56
2022-12-18T21:35:33.840Z,102333.16
2022-12-18T21:38:01.378Z,102333.13
2022-12-18T21:40:30.591Z,102332.66
2022-12-18T21:43:17.767Z,102324.91
2022-12-18T21:45:44.786Z,102334.31
2022-12-18T21:48:12.315Z,102322.59
2022-12-18T21:50:39.207Z,102308.75
2022-12-18T21:53:05.990Z,102290.25
2022-12-18T21:55:32.854Z,102285.47
2022-12-18T21:57:59.615Z,102278.53
2022-12-18T22:00:26.438Z,102275.91
2022-12-18T22:03:17.910Z,102272.44
2022-12-18T22:05:41.173Z,102271.44
2022-12-18T22:08:08.338Z,102283.00
2022-12-18T22:10:35.151Z,102281.34
2022-12-18T22:13:02.236Z,102312.38
2022-12-18T22:15:29.068Z,102324.88
2022-12-18T22:17:59.839Z,102316.81
2022-12-18T22:20:27.336Z,102327.38
2022-12-18T22:22:54.233Z,102306.72
2022-12-18T22:25:21.004Z,102315.00
2022-12-18T22:28:07.932Z,102329.84
2022-12-18T22:30:36.130Z,102331.16
2022-12-18T22:33:05.962Z,102334.44
2022-12-18T22:35:33.222Z,102342.22
2022-12-18T22:38:00.239Z,102323.59
2022-12-18T22:40:28.135Z,102297.34
2022-12-18T22:42:56.315Z,102291.22
2022-12-18T22:45:23.559Z,102271.63
2022-12-18T22:47:51.189Z,102271.63
2022-12-18T22:50:18.278Z,102285.47
2022-12-18T22:52:45.222Z,102275.75
2022-12-18T22:55:12.076Z,102297.84
2022-12-18T22:57:47.046Z,102288.94
2022-12-18T23:00:16.311Z,102289.06
2022-12-18T23:02:45.332Z,102265.47
2022-12-18T23:05:12.324Z,102251.44
2022-12-18T23:07:39.264Z,102250.78
2022-12-18T23:10:06.602Z,102251.28
2022-12-18T23:12:33.500Z,102244.66
2022-12-18T23:15:03.141Z,102238.72
2022-12-18T23:17:30.072Z,102244.31
2022-12-18T23:19:56.812Z,102235.75
2022-12-18T23:22:23.975Z,102235.91
2022-12-18T23:24:51.041Z,102208.66
2022-12-18T23:27:18.594Z,102210.81
2022-12-18T23:29:45.403Z,102208.66
2022-12-18T23:32:14.217Z,102197.44
2022-12-18T23:34:41.171Z,102197.28
2022-12-18T23:37:10.679Z,102198.25
2022-12-18T23:39:37.530Z,102187.53
2022-12-18T23:42:05.318Z,102194.97
2022-12-18T23:44:32.295Z,102190.66
2022-12-18T23:46:59.564Z,102192.00
2022-12-18T23:49:26.674Z,102190.19
2022-12-18T23:51:54.163Z,102184.09
2022-12-18T23:54:31.721Z,102175.63
2022-12-18T23:57:00.474Z,102156.53
2022-12-18T23:59:27.966Z,102158.66
